Terminal Aerodrome Forecast
Issued by NWS Bismarck, ND

Home | Current Version | Previous Version | Graphics & Text | Print | Product List | Glossary On
Versions: 1 2 3 4 5 6 7 8 9 10 11 12 13 14 15 16 17 18 19 20 21 22 23 24 25 26 27 28 29 30 31
000
FTUS43 KBIS 271516 AAC
TAFBIS
TAF AMD
KBIS 271516Z 2715/2812 VRB03KT P6SM SCT030 BKN200
     FM271600 05006KT P6SM SCT040 BKN060
     FM271800 05008KT P6SM BKN080=

USA.gov is the U.S. government's official web portal to all federal, state and local government web resources and services.